Washington Municipal Airport
Friday 10:35 PM
Weather Partly Cloudy
Temperature 34°
Dew Point 21°
Feels Like 26°
Relative Humidity 60
%
Visibility 10
mi
Pressure 1012.9
mb
Wind Direction SSE
Wind Speed 9
mph
Last Hour Precip 0.00
"
KAWG 270435Z AUTO 15008KT 10SM BKN120 01/M06 A2991 RMK AO2

Recent Observations

Time Present Weather Temp DP Feels RH% Vsby Pressure Ceiling Direction Speed Gust 1h Precip
10:35PM
VFR
34° 21° 26° 60
%
10
mi
1012.9
mb
12000
ft
SSE 9
mph
0.00"
KAWG 270435Z AUTO 15008KT 10SM BKN120 01/M06 A2991 RMK AO2
10:15PM
VFR
34° 21° 27° 60
%
10
mi
1012.9
mb
11000
ft
SSE 8
mph
0.00"
KAWG 270415Z AUTO 15007KT 10SM OVC110 01/M06 A2991 RMK AO2
9:55PM
VFR
34° 21° 26° 60
%
10
mi
1013.2
mb
11000
ft
SSE 9
mph
0.00"
KAWG 270355Z AUTO 16008KT 10SM OVC110 01/M06 A2992 RMK AO2
9:35PM
VFR
34° 21° 25° 60
%
10
mi
1013.2
mb
None SSE 12
mph
0.00"
KAWG 270335Z AUTO 15010KT 10SM SCT110 01/M06 A2992 RMK AO2
9:15PM
VFR
34° 19° 26° 55
%
10
mi
1013.5
mb
12000
ft
SSE 10
mph
0.00"
KAWG 270315Z AUTO 15009KT 10SM BKN120 01/M07 A2993 RMK AO2
8:55PM
VFR
34° 19° 26° 55
%
10
mi
1013.9
mb
12000
ft
SSE 10
mph
0.00"
KAWG 270255Z AUTO 16009KT 10SM OVC120 01/M07 A2994 RMK AO2
8:35PM
VFR
34° 19° 25° 55
%
10
mi
1013.9
mb
12000
ft
SSE 13
mph
0.00"
KAWG 270235Z AUTO 16011KT 10SM OVC120 01/M07 A2994 RMK AO2
8:15PM
VFR
34° 19° 26° 55
%
10
mi
1013.9
mb
12000
ft
SSE 10
mph
0.00"
KAWG 270215Z AUTO 15009KT 10SM BKN120 01/M07 A2994 RMK AO2
7:55PM 34° 19° 25° 55
%
1013.9
mb
None SSE 12
mph
17
mph
0.00"
KAWG 270155Z AUTO 15010G15KT CLR 01/M07 A2994 RMK AO2
7:35PM
VFR
34° 18° 25° 51
%
10
mi
1014.2
mb
None SSE 13
mph
0.00"
KAWG 270135Z AUTO 15011KT 10SM CLR 01/M08 A2995 RMK AO2
7:15PM
VFR
36° 18° 27° 48
%
10
mi
1014.6
mb
None SE 12
mph
0.00"
KAWG 270115Z AUTO 14010KT 10SM CLR 02/M08 A2996 RMK AO2
6:55PM
VFR
36° 18° 28° 48
%
10
mi
1014.6
mb
None SSE 10
mph
0.00"
KAWG 270055Z AUTO 15009KT 10SM SCT110 02/M08 A2996 RMK AO2
6:35PM
VFR
36° 18° 29° 48
%
10
mi
1014.9
mb
11000
ft
SSE 8
mph
0.00"
KAWG 270035Z AUTO 15007KT 10SM OVC110 02/M08 A2997 RMK AO2
6:15PM
VFR
36° 18° 29° 48
%
10
mi
1014.9
mb
11000
ft
SSE 8
mph
0.00"
KAWG 270015Z AUTO 15007KT 10SM OVC110 02/M08 A2997 RMK AO2
5:55PM
VFR
34° 18° 28° 51
%
10
mi
1015.2
mb
12000
ft
SSE 7
mph
0.00"
KAWG 262355Z AUTO 15006KT 10SM BKN120 01/M08 A2998 RMK AO2
5:35PM
VFR
34° 16° 28° 47
%
10
mi
1015.2
mb
None SSE 7
mph
0.00"
KAWG 262335Z AUTO 15006KT 10SM FEW120 01/M09 A2998 RMK AO2
5:15PM
VFR
34° 16° 26° 47
%
10
mi
1014.9
mb
None SE 9
mph
0.00"
KAWG 262315Z AUTO 14008KT 10SM CLR 01/M09 A2997 RMK AO2
4:55PM
VFR
34° 16° 26° 47
%
10
mi
1015.2
mb
None SE 10
mph
0.00"
KAWG 262255Z AUTO 14009KT 10SM CLR 01/M09 A2998 RMK AO2
4:35PM
VFR
37° 16° 31° 41
%
10
mi
1015.6
mb
None SSE 8
mph
0.00"
KAWG 262235Z AUTO 15007KT 10SM CLR 03/M09 A2999 RMK AO2
4:15PM
VFR
37° 14° 31° 38
%
10
mi
1015.9
mb
None SSE 9
mph
0.00"
KAWG 262215Z AUTO 15008KT 10SM CLR 03/M10 A3000 RMK AO2
Click here to show this page without METARs/TAFs included